Benton, New Hampshire
Current Conditions -  °F | °C
As of 7:15 AM on Wednesday 28 Jan 2015 (Local Time) from K1P1 Reporting Station
Overcast Overcast  
Wind Chill: -2°   Ceiling: 7000
Heat Index: 10°   Visibility: 10mi
Dew Point:   Wind: 8mph
Humidity: 77%   Direction: 270°W
Pressure: 29.88"   Gusts: 16mph
Location:  44.0015°N, 72.0028°W
Report Text: K1P1 281215Z AUTO 27007G14KT 10SM SCT065 OVC070 M12/M15 A2988 RMK AO2 T11221155
Loading
Personal Weather Stations






























Interactive Weather Map New forecast layout! Learn more

10-Day Weather Forecast

Advertisements
Track Severe Weather on mobile